Aegean Navigator — SWBI — position and weather

sailwx.info

Track history (hours):
 
Tides and Currents Weather Stations Pressure Air Temp Water Temp Dewpoint Dewpoint Depression Visibility Wind Speed Wind Dir Waves Ship Positions

Aegean Navigator

Last reported at 2015-Sep-01 13:33 UTC. Time now 2015-Sep-01 14:12 UTC.
Position N 33°45' E 030°10'.

Length 274 m; draft 16 m.

Type: Tanker. MMSI: 240634000.

Date/timePositionNaut miles runAvg speedWind from/ knotsBaromVisibWave heightAir tempDewpointWater temp
2015-Sep-01 13:33N 33°45' E 030°10'1312.7
2015-Sep-01 12:32N 33°52' E 029°56'1212.5
2015-Sep-01 11:33N 33°57' E 029°43'1312.6
2015-Sep-01 10:33N 34°03' E 029°29'1212.5
2015-Sep-01 09:33N 34°09' E 029°16'1312.6
2015-Sep-01 08:33N 34°15' E 029°03'1312.8
2015-Sep-01 07:33N 34°21' E 028°49'1212.4
2015-Sep-01 06:33N 34°27' E 028°36'1212.3
2015-Sep-01 05:33N 34°32' E 028°23'6212.3
2015-Sep-01 00:33N 35°01' E 027°16'1212.2
2015-Aug-31 23:33N 35°07' E 027°03'1212.4
2015-Aug-31 22:33N 35°13' E 026°50'1212.5
2015-Aug-31 21:33N 35°18' E 026°36'6512.7
2015-Aug-31 16:25N 35°34' E 025°18'1012.0
2015-Aug-31 15:33N 35°36' E 025°06'1312.0
2015-Aug-31 14:30N 35°38' E 024°51'1212.4
2015-Aug-31 13:33N 35°40' E 024°36'2512.5
2015-Aug-31 11:33N 35°44' E 024°06'43412.0
2015-Aug-29 23:28N 36°31' E 015°12'2512.3
2015-Aug-29 21:25N 36°36' E 014°41'8412.2
2015-Aug-29 14:30N 36°54' E 012°58'2812.6
2015-Aug-29 12:16N 37°01' E 012°24'912.6
2015-Aug-29 11:32N 37°03' E 012°13'5012.4
2015-Aug-29 07:29N 37°20' E 011°14'1412.4
2015-Aug-29 06:22N 37°26' E 010°57'9412.1
2015-Aug-28 22:33N 37°23' E 008°59'104 4.5
2015-Aug-27 23:23N 37°31' E 006°48'6 0.4
2015-Aug-27 07:11N 37°36' E 006°55'4 0.3
2015-Aug-26 19:25N 37°37' E 006°59'0 0.6
2015-Aug-26 18:33N 37°38' E 006°60'32 7.9
2015-Aug-26 14:31N 37°39' E 007°40'9311.7
2015-Aug-26 06:33N 37°43' E 009°38'1211.8
2015-Aug-26 05:33N 37°41' E 009°52'1211.7
2015-Aug-26 04:32N 37°40' E 010°07'2211.3
2015-Aug-26 02:33N 37°36' E 010°35'3411.4
2015-Aug-25 23:33N 37°25' E 011°16'1211.9
2015-Aug-25 22:32N 37°20' E 011°29'1411.6
2015-Aug-25 21:18N 37°12' E 011°45'1411.5
2015-Aug-25 20:07N 37°06' E 012°00'611.4
2015-Aug-25 19:34N 37°05' E 012°08'1111.4
2015-Aug-25 18:34N 37°02' E 012°22'1111.4
2015-Aug-25 17:33N 36°60' E 012°36'1211.8
2015-Aug-25 16:32N 36°57' E 012°50'1211.9
2015-Aug-25 15:33N 36°54' E 013°05'1211.9
2015-Aug-25 14:33N 36°52' E 013°19'1211.8
2015-Aug-25 13:33N 36°49' E 013°34'1211.7
2015-Aug-25 12:33N 36°46' E 013°48'1212.0
2015-Aug-25 11:34N 36°44' E 014°02'1212.0
2015-Aug-25 10:34N 36°41' E 014°17'1211.7
2015-Aug-25 09:34N 36°39' E 014°31'1111.5
2015-Aug-25 08:34N 36°36' E 014°45'1211.5
2015-Aug-25 07:33N 36°33' E 014°59'1211.7
2015-Aug-25 06:33N 36°33' E 015°14'1211.9
2015-Aug-25 05:33N 36°32' E 015°29'1212.0
2015-Aug-25 04:33N 36°32' E 015°43'1212.2
2015-Aug-25 03:32N 36°31' E 015°59'1212.3
2015-Aug-25 02:33N 36°31' E 016°14'2411.9
2015-Aug-25 00:33N 36°30' E 016°44'1211.6
2015-Aug-24 23:33N 36°30' E 016°58'38310.9
2015-Aug-23 12:18N 35°55' E 024°50'1012.7
2015-Aug-23 11:33N 35°51' E 025°01'1212.6
2015-Aug-23 10:34N 35°47' E 025°16'23812.4
2015-Aug-22 15:21N 34°51' E 029°59'  
Track history (hours):
 
Tides and Currents Weather Stations Pressure Air Temp Water Temp Dewpoint Dewpoint Depression Visibility Wind Speed Wind Dir Waves Ship Positions

Aegean Navigator

Last reported at 2015-Sep-01 13:33 UTC. Time now 2015-Sep-01 14:12 UTC.
Position N 33°45' E 030°10'.

Length 274 m; draft 16 m.

Type: Tanker. MMSI: 240634000.

Date/timePositionNaut miles runAvg speedWind from/ knotsBaromVisibWave heightAir tempDewpointWater temp
2015-Sep-01 13:33N 33°45' E 030°10'1312.7
2015-Sep-01 12:32N 33°52' E 029°56'1212.5
2015-Sep-01 11:33N 33°57' E 029°43'1312.6
2015-Sep-01 10:33N 34°03' E 029°29'1212.5
2015-Sep-01 09:33N 34°09' E 029°16'1312.6
2015-Sep-01 08:33N 34°15' E 029°03'1312.8
2015-Sep-01 07:33N 34°21' E 028°49'1212.4
2015-Sep-01 06:33N 34°27' E 028°36'1212.3
2015-Sep-01 05:33N 34°32' E 028°23'6212.3
2015-Sep-01 00:33N 35°01' E 027°16'1212.2
2015-Aug-31 23:33N 35°07' E 027°03'1212.4
2015-Aug-31 22:33N 35°13' E 026°50'1212.5
2015-Aug-31 21:33N 35°18' E 026°36'6512.7
2015-Aug-31 16:25N 35°34' E 025°18'1012.0
2015-Aug-31 15:33N 35°36' E 025°06'1312.0
2015-Aug-31 14:30N 35°38' E 024°51'1212.4
2015-Aug-31 13:33N 35°40' E 024°36'2512.5
2015-Aug-31 11:33N 35°44' E 024°06'43412.0
2015-Aug-29 23:28N 36°31' E 015°12'2512.3
2015-Aug-29 21:25N 36°36' E 014°41'8412.2
2015-Aug-29 14:30N 36°54' E 012°58'2812.6
2015-Aug-29 12:16N 37°01' E 012°24'912.6
2015-Aug-29 11:32N 37°03' E 012°13'5012.4
2015-Aug-29 07:29N 37°20' E 011°14'1412.4
2015-Aug-29 06:22N 37°26' E 010°57'9412.1
2015-Aug-28 22:33N 37°23' E 008°59'104 4.5
2015-Aug-27 23:23N 37°31' E 006°48'6 0.4
2015-Aug-27 07:11N 37°36' E 006°55'4 0.3
2015-Aug-26 19:25N 37°37' E 006°59'0 0.6
2015-Aug-26 18:33N 37°38' E 006°60'32 7.9
2015-Aug-26 14:31N 37°39' E 007°40'9311.7
2015-Aug-26 06:33N 37°43' E 009°38'1211.8
2015-Aug-26 05:33N 37°41' E 009°52'1211.7
2015-Aug-26 04:32N 37°40' E 010°07'2211.3
2015-Aug-26 02:33N 37°36' E 010°35'3411.4
2015-Aug-25 23:33N 37°25' E 011°16'1211.9
2015-Aug-25 22:32N 37°20' E 011°29'1411.6
2015-Aug-25 21:18N 37°12' E 011°45'1411.5
2015-Aug-25 20:07N 37°06' E 012°00'611.4
2015-Aug-25 19:34N 37°05' E 012°08'1111.4
2015-Aug-25 18:34N 37°02' E 012°22'1111.4
2015-Aug-25 17:33N 36°60' E 012°36'1211.8
2015-Aug-25 16:32N 36°57' E 012°50'1211.9
2015-Aug-25 15:33N 36°54' E 013°05'1211.9
2015-Aug-25 14:33N 36°52' E 013°19'1211.8
2015-Aug-25 13:33N 36°49' E 013°34'1211.7
2015-Aug-25 12:33N 36°46' E 013°48'1212.0
2015-Aug-25 11:34N 36°44' E 014°02'1212.0
2015-Aug-25 10:34N 36°41' E 014°17'1211.7
2015-Aug-25 09:34N 36°39' E 014°31'1111.5
2015-Aug-25 08:34N 36°36' E 014°45'1211.5
2015-Aug-25 07:33N 36°33' E 014°59'1211.7
2015-Aug-25 06:33N 36°33' E 015°14'1211.9
2015-Aug-25 05:33N 36°32' E 015°29'1212.0
2015-Aug-25 04:33N 36°32' E 015°43'1212.2
2015-Aug-25 03:32N 36°31' E 015°59'1212.3
2015-Aug-25 02:33N 36°31' E 016°14'2411.9
2015-Aug-25 00:33N 36°30' E 016°44'1211.6
2015-Aug-24 23:33N 36°30' E 016°58'38310.9
2015-Aug-23 12:18N 35°55' E 024°50'1012.7
2015-Aug-23 11:33N 35°51' E 025°01'1212.6
2015-Aug-23 10:34N 35°47' E 025°16'23812.4
2015-Aug-22 15:21N 34°51' E 029°59'  

Dump ship's entire track history